createdAt,value
2023-03-30T00:04:54.811Z,1.98
2023-03-30T00:09:58.395Z,2.17
2023-03-30T00:15:00.446Z,2.20
2023-03-30T00:20:05.176Z,2.38
2023-03-30T00:25:09.619Z,2.20
2023-03-30T00:30:15.265Z,2.03
2023-03-30T00:35:17.422Z,2.33
2023-03-30T00:40:21.684Z,1.75
2023-03-30T00:45:28.667Z,1.98
2023-03-30T00:50:45.138Z,2.05
2023-03-30T00:55:49.535Z,2.17
2023-03-30T01:00:52.038Z,2.08
2023-03-30T01:05:56.414Z,2.25
2023-03-30T01:11:02.595Z,2.13
2023-03-30T01:16:30.242Z,1.42
2023-03-30T01:21:51.133Z,2.00
2023-03-30T01:27:08.558Z,2.08
2023-03-30T01:32:19.619Z,1.63
2023-03-30T01:42:59.948Z,1.35
2023-03-30T01:48:11.461Z,1.40
2023-03-30T01:53:18.276Z,1.45
2023-03-30T01:58:39.519Z,1.67
2023-03-30T02:03:46.544Z,2.00
2023-03-30T02:08:49.879Z,1.77
2023-03-30T02:13:55.185Z,1.80
2023-03-30T02:18:58.632Z,1.67
2023-03-30T02:24:03.905Z,1.55
2023-03-30T02:29:07.472Z,1.67
2023-03-30T02:34:32.746Z,1.70
2023-03-30T02:40:15.291Z,1.30
2023-03-30T02:45:44.719Z,1.20
2023-03-30T02:50:58.036Z,1.25
2023-03-30T02:56:44.284Z,1.30
2023-03-30T03:01:52.496Z,1.35
2023-03-30T03:06:55.657Z,1.17
2023-03-30T03:11:58.333Z,1.73
2023-03-30T03:17:06.119Z,1.35
2023-03-30T03:22:12.717Z,1.25
2023-03-30T03:27:16.434Z,1.33
2023-03-30T03:32:35.907Z,1.58
2023-03-30T03:37:38.386Z,1.55
2023-03-30T03:42:40.787Z,1.83
2023-03-30T03:47:45.942Z,1.75
2023-03-30T03:52:48.232Z,2.00
2023-03-30T03:57:51.505Z,1.83
2023-03-30T04:02:53.652Z,2.45
2023-03-30T04:07:56.810Z,2.75
2023-03-30T04:12:59.386Z,2.50
2023-03-30T04:18:21.565Z,2.80
2023-03-30T04:23:39.985Z,3.00
2023-03-30T04:28:54.156Z,2.78
2023-03-30T04:34:04.990Z,2.25
2023-03-30T04:39:18.140Z,2.67
2023-03-30T04:44:40.751Z,2.88
2023-03-30T04:50:17.028Z,2.92
2023-03-30T04:55:37.760Z,2.50
2023-03-30T05:01:00.817Z,2.70
2023-03-30T05:06:23.567Z,2.77
2023-03-30T05:11:52.004Z,2.50
2023-03-30T05:17:09.541Z,2.63
2023-03-30T05:27:45.785Z,3.15
2023-03-30T05:33:02.279Z,3.38
2023-03-30T05:38:22.629Z,2.60
2023-03-30T05:43:55.980Z,3.42
2023-03-30T05:49:09.718Z,3.45
2023-03-30T05:54:26.652Z,2.47
2023-03-30T05:59:44.455Z,2.95
2023-03-30T06:04:52.635Z,2.97
2023-03-30T06:09:55.176Z,2.45
2023-03-30T06:15:03.401Z,2.75
2023-03-30T06:20:28.857Z,3.08
2023-03-30T06:25:33.642Z,3.22
2023-03-30T06:30:35.934Z,2.85
2023-03-30T06:35:49.108Z,2.50
2023-03-30T06:40:53.912Z,2.42
2023-03-30T06:45:59.231Z,2.85
2023-03-30T06:51:02.577Z,2.40
2023-03-30T06:56:05.784Z,2.67
2023-03-30T07:01:13.821Z,2.38
2023-03-30T07:06:36.013Z,2.42
2023-03-30T07:11:39.250Z,2.35
2023-03-30T07:16:41.582Z,2.88
2023-03-30T07:21:44.032Z,2.83
2023-03-30T07:26:50.109Z,2.40
2023-03-30T07:31:52.871Z,2.50
2023-03-30T07:36:55.798Z,2.67
2023-03-30T07:42:02.806Z,2.67
2023-03-30T07:47:06.910Z,3.15
2023-03-30T07:52:11.855Z,2.88
2023-03-30T07:57:22.637Z,3.03
2023-03-30T08:02:25.236Z,3.38
2023-03-30T08:07:30.148Z,3.10
2023-03-30T08:12:42.223Z,2.67
2023-03-30T08:17:44.455Z,3.15
2023-03-30T08:22:47.714Z,3.47
2023-03-30T08:27:49.778Z,2.92
2023-03-30T08:32:53.677Z,3.78
2023-03-30T08:37:55.800Z,3.80
2023-03-30T08:43:09.112Z,3.30
2023-03-30T08:48:21.119Z,3.25
2023-03-30T08:53:23.320Z,2.83
2023-03-30T08:58:49.697Z,3.22
2023-03-30T09:04:09.659Z,2.50
2023-03-30T09:09:14.831Z,2.92
2023-03-30T09:14:28.978Z,3.05
2023-03-30T09:20:09.247Z,3.90
2023-03-30T09:25:36.296Z,3.15
2023-03-30T09:30:45.818Z,3.58
2023-03-30T09:36:14.260Z,4.05
2023-03-30T09:41:42.788Z,3.45
2023-03-30T09:46:44.913Z,4.13
2023-03-30T09:52:21.488Z,3.33
2023-03-30T09:57:23.516Z,3.88
2023-03-30T10:02:28.714Z,3.00
2023-03-30T10:07:40.474Z,3.22
2023-03-30T10:12:42.925Z,4.00
2023-03-30T10:17:51.428Z,3.33
2023-03-30T10:23:15.750Z,3.78
2023-03-30T10:28:27.123Z,3.30
2023-03-30T10:33:31.037Z,3.33
2023-03-30T10:38:34.137Z,3.33
2023-03-30T10:43:37.052Z,2.63
2023-03-30T10:48:55.096Z,2.75
2023-03-30T10:54:06.654Z,3.05
2023-03-30T10:59:17.127Z,3.65
2023-03-30T11:04:28.585Z,2.50
2023-03-30T11:09:38.066Z,3.00
2023-03-30T11:14:58.186Z,2.33
2023-03-30T11:20:28.857Z,2.58
2023-03-30T11:25:38.893Z,2.78
2023-03-30T11:30:42.157Z,2.40
2023-03-30T11:35:47.884Z,2.85
2023-03-30T11:40:56.246Z,2.70
2023-03-30T11:46:08.633Z,2.63
2023-03-30T11:51:26.182Z,2.30
2023-03-30T11:56:39.821Z,3.00
2023-03-30T12:02:07.790Z,1.90
2023-03-30T12:07:22.021Z,2.17
2023-03-30T12:12:36.220Z,3.03
2023-03-30T12:17:49.350Z,3.05
2023-03-30T12:23:25.089Z,2.70
2023-03-30T12:29:32.580Z,2.58
2023-03-30T12:34:19.682Z,1.80
2023-03-30T12:39:31.251Z,2.03
2023-03-30T12:45:11.769Z,2.83
2023-03-30T12:50:30.990Z,2.80
2023-03-30T12:56:07.478Z,2.80
2023-03-30T13:01:24.067Z,2.83
2023-03-30T13:06:31.753Z,2.60
2023-03-30T13:11:49.963Z,2.20
2023-03-30T13:16:54.897Z,2.65
2023-03-30T13:22:12.316Z,3.05
2023-03-30T13:27:14.473Z,2.47
2023-03-30T13:32:31.775Z,2.50
2023-03-30T13:38:07.120Z,2.80
2023-03-30T13:43:19.433Z,2.00
2023-03-30T13:48:30.842Z,2.40
2023-03-30T13:53:41.743Z,2.50
2023-03-30T13:59:08.049Z,3.03
2023-03-30T14:04:13.768Z,2.47
2023-03-30T14:09:27.875Z,2.63
2023-03-30T14:14:30.026Z,1.77
2023-03-30T14:19:36.151Z,2.20
2023-03-30T14:24:38.262Z,2.05
2023-03-30T14:29:49.068Z,2.00
2023-03-30T14:34:53.615Z,1.80
2023-03-30T14:39:57.554Z,2.10
2023-03-30T14:45:00.656Z,1.85
2023-03-30T14:50:07.747Z,1.65
2023-03-30T14:55:17.636Z,2.03
2023-03-30T15:00:24.961Z,1.80
2023-03-30T15:05:36.098Z,1.70
2023-03-30T15:10:49.780Z,1.98
2023-03-30T15:15:54.286Z,1.55
2023-03-30T15:20:57.597Z,2.20
2023-03-30T15:26:02.086Z,2.30
2023-03-30T15:31:05.168Z,1.88
2023-03-30T15:36:30.601Z,1.83
2023-03-30T15:42:06.645Z,1.79
2023-03-30T15:47:17.795Z,2.42
2023-03-30T15:52:25.035Z,2.00
2023-03-30T15:57:30.707Z,2.20
2023-03-30T16:02:32.857Z,2.45
2023-03-30T16:07:36.219Z,2.40
2023-03-30T16:12:42.022Z,1.75
2023-03-30T16:17:44.730Z,1.65
2023-03-30T16:22:47.393Z,1.80
2023-03-30T16:27:49.768Z,1.80
2023-03-30T16:32:52.118Z,1.73
2023-03-30T16:37:54.427Z,1.73
2023-03-30T16:42:56.996Z,2.10
2023-03-30T16:47:59.810Z,2.00
2023-03-30T16:53:01.977Z,2.17
2023-03-30T16:58:05.525Z,2.00
2023-03-30T17:03:08.310Z,1.95
2023-03-30T17:08:21.367Z,2.10
2023-03-30T17:13:23.992Z,2.00
2023-03-30T17:18:26.658Z,1.92
2023-03-30T17:23:31.964Z,2.10
2023-03-30T17:28:38.320Z,1.65
2023-03-30T17:33:40.566Z,1.80
2023-03-30T17:38:43.810Z,2.17
2023-03-30T17:43:47.967Z,2.25
2023-03-30T17:48:53.101Z,2.10
2023-03-30T17:53:55.228Z,2.17
2023-03-30T17:58:57.384Z,1.75
2023-03-30T18:03:59.744Z,1.77
2023-03-30T18:09:01.973Z,1.95
2023-03-30T18:14:04.184Z,2.25
2023-03-30T18:19:09.735Z,2.17
2023-03-30T18:24:11.717Z,2.35
2023-03-30T18:29:20.319Z,1.85
2023-03-30T18:34:22.738Z,2.72
2023-03-30T18:39:24.723Z,3.17
2023-03-30T18:44:26.814Z,2.08
2023-03-30T18:49:28.883Z,2.28
2023-03-30T18:54:32.103Z,2.28
2023-03-30T18:59:34.212Z,1.90
2023-03-30T19:04:36.329Z,3.30
2023-03-30T19:09:42.960Z,2.47
2023-03-30T19:14:45.973Z,2.50
2023-03-30T19:19:48.032Z,2.40
2023-03-30T19:24:50.579Z,2.97
2023-03-30T19:29:53.205Z,3.10
2023-03-30T19:34:56.152Z,3.13
2023-03-30T19:39:58.337Z,3.33
2023-03-30T19:45:01.610Z,3.72
2023-03-30T19:50:08.848Z,3.25
2023-03-30T19:55:10.885Z,3.40
2023-03-30T20:00:18.138Z,3.20
2023-03-30T20:05:22.773Z,3.05
2023-03-30T20:10:25.942Z,2.88
2023-03-30T20:15:28.194Z,2.78
2023-03-30T20:20:34.583Z,3.63
2023-03-30T20:25:36.672Z,3.55
2023-03-30T20:30:38.802Z,3.30
2023-03-30T20:35:40.969Z,4.10
2023-03-30T20:40:48.329Z,3.25
2023-03-30T20:45:55.869Z,4.15
2023-03-30T20:50:58.085Z,3.47
2023-03-30T20:56:01.697Z,3.35
2023-03-30T21:01:13.755Z,3.67
2023-03-30T21:06:19.546Z,3.20
2023-03-30T21:11:23.364Z,3.05
2023-03-30T21:16:25.745Z,3.05
2023-03-30T21:21:27.925Z,3.78
2023-03-30T21:26:29.995Z,2.53
2023-03-30T21:31:32.387Z,2.92
2023-03-30T21:36:35.035Z,2.70
2023-03-30T21:41:37.493Z,2.92
2023-03-30T21:46:39.738Z,2.80
2023-03-30T21:51:42.042Z,3.25
2023-03-30T21:56:44.376Z,2.58
2023-03-30T22:01:46.598Z,2.60
2023-03-30T22:06:48.784Z,2.60
2023-03-30T22:11:53.004Z,2.53
2023-03-30T22:16:55.340Z,2.20
2023-03-30T22:21:57.339Z,2.15
2023-03-30T22:26:59.604Z,2.78
2023-03-30T22:32:01.851Z,2.35
2023-03-30T22:37:04.121Z,2.50
2023-03-30T22:42:06.923Z,2.05
2023-03-30T22:47:09.406Z,2.40
2023-03-30T22:52:11.447Z,2.45
2023-03-30T22:57:14.241Z,2.20
2023-03-30T23:02:16.565Z,2.75
2023-03-30T23:07:19.121Z,2.47
2023-03-30T23:12:21.383Z,2.38
2023-03-30T23:17:24.422Z,2.50
2023-03-30T23:22:27.012Z,2.38
2023-03-30T23:27:29.064Z,2.88
2023-03-30T23:32:31.319Z,2.60
2023-03-30T23:37:34.002Z,2.67
2023-03-30T23:42:36.099Z,3.17
2023-03-30T23:47:38.444Z,2.65
2023-03-30T23:52:40.592Z,3.40
2023-03-30T23:57:42.674Z,3.58
